sensor_id;sensor_type;location;lat;lon;timestamp;temperature;humidity
16285;DHT22;8250;52.426;9.450;2022-09-23T00:02:09;11.80;99.90
16285;DHT22;8250;52.426;9.450;2022-09-23T00:04:36;11.90;99.90
16285;DHT22;8250;52.426;9.450;2022-09-23T00:07:04;11.90;99.90
16285;DHT22;8250;52.426;9.450;2022-09-23T00:09:32;12.00;99.90
16285;DHT22;8250;52.426;9.450;2022-09-23T00:11:59;12.00;99.90
16285;DHT22;8250;52.426;9.450;2022-09-23T00:14:26;12.10;99.90
16285;DHT22;8250;52.426;9.450;2022-09-23T00:16:53;12.10;99.90
16285;DHT22;8250;52.426;9.450;2022-09-23T00:19:19;12.20;99.90
16285;DHT22;8250;52.426;9.450;2022-09-23T00:21:47;12.10;99.90
16285;DHT22;8250;52.426;9.450;2022-09-23T00:24:15;12.20;99.90
16285;DHT22;8250;52.426;9.450;2022-09-23T00:26:42;12.30;99.90
16285;DHT22;8250;52.426;9.450;2022-09-23T00:29:09;12.30;99.90
16285;DHT22;8250;52.426;9.450;2022-09-23T00:31:35;12.30;99.90
16285;DHT22;8250;52.426;9.450;2022-09-23T00:34:03;12.30;99.90
16285;DHT22;8250;52.426;9.450;2022-09-23T00:36:30;12.20;99.90
16285;DHT22;8250;52.426;9.450;2022-09-23T00:38:57;12.30;99.90
16285;DHT22;8250;52.426;9.450;2022-09-23T00:41:26;12.20;99.90
16285;DHT22;8250;52.426;9.450;2022-09-23T00:43:57;12.20;99.90
16285;DHT22;8250;52.426;9.450;2022-09-23T00:46:27;12.10;99.90
16285;DHT22;8250;52.426;9.450;2022-09-23T00:48:58;12.10;99.90
16285;DHT22;8250;52.426;9.450;2022-09-23T00:51:31;12.10;99.90
16285;DHT22;8250;52.426;9.450;2022-09-23T00:53:59;12.10;99.90
16285;DHT22;8250;52.426;9.450;2022-09-23T00:56:28;12.10;99.90
16285;DHT22;8250;52.426;9.450;2022-09-23T00:58:56;12.10;99.90
16285;DHT22;8250;52.426;9.450;2022-09-23T01:01:24;12.10;99.90
16285;DHT22;8250;52.426;9.450;2022-09-23T01:03:52;12.10;99.90
16285;DHT22;8250;52.426;9.450;2022-09-23T01:06:20;12.10;99.90
16285;DHT22;8250;52.426;9.450;2022-09-23T01:08:47;12.10;99.90
16285;DHT22;8250;52.426;9.450;2022-09-23T01:11:29;12.10;99.90
16285;DHT22;8250;52.426;9.450;2022-09-23T01:14:07;12.00;99.90
16285;DHT22;8250;52.426;9.450;2022-09-23T01:16:42;12.00;99.90
16285;DHT22;8250;52.426;9.450;2022-09-23T01:19:31;11.90;99.90
16285;DHT22;8250;52.426;9.450;2022-09-23T01:22:05;11.90;99.90
16285;DHT22;8250;52.426;9.450;2022-09-23T01:24:45;11.80;99.90
16285;DHT22;8250;52.426;9.450;2022-09-23T01:27:25;11.70;99.90
16285;DHT22;8250;52.426;9.450;2022-09-23T01:33:03;11.50;99.90
16285;DHT22;8250;52.426;9.450;2022-09-23T01:35:50;11.50;99.90
16285;DHT22;8250;52.426;9.450;2022-09-23T01:38:28;11.40;99.90
16285;DHT22;8250;52.426;9.450;2022-09-23T01:41:02;11.40;99.90
16285;DHT22;8250;52.426;9.450;2022-09-23T01:43:37;11.40;99.90
16285;DHT22;8250;52.426;9.450;2022-09-23T01:46:08;11.40;99.90
16285;DHT22;8250;52.426;9.450;2022-09-23T01:48:44;11.30;99.90
16285;DHT22;8250;52.426;9.450;2022-09-23T01:51:16;11.30;99.90
16285;DHT22;8250;52.426;9.450;2022-09-23T01:53:50;11.30;99.90
16285;DHT22;8250;52.426;9.450;2022-09-23T01:56:22;11.20;99.90
16285;DHT22;8250;52.426;9.450;2022-09-23T01:58:53;11.20;99.90
16285;DHT22;8250;52.426;9.450;2022-09-23T02:01:29;11.10;99.90
16285;DHT22;8250;52.426;9.450;2022-09-23T02:04:03;11.10;99.90
16285;DHT22;8250;52.426;9.450;2022-09-23T02:06:36;11.10;99.90
16285;DHT22;8250;52.426;9.450;2022-09-23T02:09:08;11.00;99.90
16285;DHT22;8250;52.426;9.450;2022-09-23T02:11:39;11.00;99.90
16285;DHT22;8250;52.426;9.450;2022-09-23T02:14:14;11.00;99.90
16285;DHT22;8250;52.426;9.450;2022-09-23T02:16:46;10.90;99.90
16285;DHT22;8250;52.426;9.450;2022-09-23T02:19:20;10.90;99.90
16285;DHT22;8250;52.426;9.450;2022-09-23T02:21:51;10.90;99.90
16285;DHT22;8250;52.426;9.450;2022-09-23T02:24:23;10.80;99.90
16285;DHT22;8250;52.426;9.450;2022-09-23T02:26:56;10.80;99.90
16285;DHT22;8250;52.426;9.450;2022-09-23T02:29:27;10.70;99.90
16285;DHT22;8250;52.426;9.450;2022-09-23T02:31:58;10.70;99.90
16285;DHT22;8250;52.426;9.450;2022-09-23T02:34:37;10.70;99.90
16285;DHT22;8250;52.426;9.450;2022-09-23T02:37:19;10.60;99.90
16285;DHT22;8250;52.426;9.450;2022-09-23T02:39:54;10.60;99.90
16285;DHT22;8250;52.426;9.450;2022-09-23T02:42:27;10.60;99.90
16285;DHT22;8250;52.426;9.450;2022-09-23T02:44:56;10.50;99.90
16285;DHT22;8250;52.426;9.450;2022-09-23T02:47:27;10.50;99.90
16285;DHT22;8250;52.426;9.450;2022-09-23T02:49:57;10.40;99.90
16285;DHT22;8250;52.426;9.450;2022-09-23T02:52:24;10.40;99.90
16285;DHT22;8250;52.426;9.450;2022-09-23T02:54:51;10.40;99.90
16285;DHT22;8250;52.426;9.450;2022-09-23T02:57:18;10.30;99.90
16285;DHT22;8250;52.426;9.450;2022-09-23T02:59:46;10.30;99.90
16285;DHT22;8250;52.426;9.450;2022-09-23T03:02:29;10.20;99.90
16285;DHT22;8250;52.426;9.450;2022-09-23T03:05:07;10.20;99.90
16285;DHT22;8250;52.426;9.450;2022-09-23T03:07:42;10.10;99.90
16285;DHT22;8250;52.426;9.450;2022-09-23T03:10:16;10.10;99.90
16285;DHT22;8250;52.426;9.450;2022-09-23T03:12:53;10.10;99.90
16285;DHT22;8250;52.426;9.450;2022-09-23T03:15:28;10.10;99.90
16285;DHT22;8250;52.426;9.450;2022-09-23T03:18:06;10.00;99.90
16285;DHT22;8250;52.426;9.450;2022-09-23T03:20:40;10.00;99.90
16285;DHT22;8250;52.426;9.450;2022-09-23T03:23:12;10.00;99.90
16285;DHT22;8250;52.426;9.450;2022-09-23T03:25:42;10.00;99.90
16285;DHT22;8250;52.426;9.450;2022-09-23T03:28:12;10.00;99.90
16285;DHT22;8250;52.426;9.450;2022-09-23T03:30:41;10.00;99.90
16285;DHT22;8250;52.426;9.450;2022-09-23T03:33:11;10.00;99.90
16285;DHT22;8250;52.426;9.450;2022-09-23T03:35:47;9.90;99.90
16285;DHT22;8250;52.426;9.450;2022-09-23T03:38:36;9.90;99.90
16285;DHT22;8250;52.426;9.450;2022-09-23T03:41:08;9.90;99.90
16285;DHT22;8250;52.426;9.450;2022-09-23T03:43:37;9.90;99.90
16285;DHT22;8250;52.426;9.450;2022-09-23T03:46:06;9.80;99.90
16285;DHT22;8250;52.426;9.450;2022-09-23T03:48:33;9.80;99.90
16285;DHT22;8250;52.426;9.450;2022-09-23T03:51:12;9.80;99.90
16285;DHT22;8250;52.426;9.450;2022-09-23T03:53:44;9.80;99.90
16285;DHT22;8250;52.426;9.450;2022-09-23T03:56:11;9.80;99.90
16285;DHT22;8250;52.426;9.450;2022-09-23T03:58:38;9.80;99.90
16285;DHT22;8250;52.426;9.450;2022-09-23T04:01:05;9.80;99.90
16285;DHT22;8250;52.426;9.450;2022-09-23T04:03:32;9.80;99.90
16285;DHT22;8250;52.426;9.450;2022-09-23T04:05:58;9.80;99.90
16285;DHT22;8250;52.426;9.450;2022-09-23T04:08:27;9.80;99.90
16285;DHT22;8250;52.426;9.450;2022-09-23T04:10:58;9.80;99.90
16285;DHT22;8250;52.426;9.450;2022-09-23T04:13:26;9.80;99.90
16285;DHT22;8250;52.426;9.450;2022-09-23T04:15:54;9.80;99.90
16285;DHT22;8250;52.426;9.450;2022-09-23T04:18:20;9.80;99.90
16285;DHT22;8250;52.426;9.450;2022-09-23T04:20:48;9.80;99.90
16285;DHT22;8250;52.426;9.450;2022-09-23T04:23:15;9.80;99.90
16285;DHT22;8250;52.426;9.450;2022-09-23T04:25:45;9.80;99.90
16285;DHT22;8250;52.426;9.450;2022-09-23T04:28:12;9.70;99.90
16285;DHT22;8250;52.426;9.450;2022-09-23T04:30:39;9.70;99.90
16285;DHT22;8250;52.426;9.450;2022-09-23T04:33:08;9.70;99.90
16285;DHT22;8250;52.426;9.450;2022-09-23T04:35:35;9.70;99.90
16285;DHT22;8250;52.426;9.450;2022-09-23T04:38:03;9.70;99.90
16285;DHT22;8250;52.426;9.450;2022-09-23T04:40:30;9.70;99.90
16285;DHT22;8250;52.426;9.450;2022-09-23T04:42:58;9.70;99.90
16285;DHT22;8250;52.426;9.450;2022-09-23T04:45:25;9.70;99.90
16285;DHT22;8250;52.426;9.450;2022-09-23T04:47:52;9.70;99.90
16285;DHT22;8250;52.426;9.450;2022-09-23T04:50:20;9.70;99.90
16285;DHT22;8250;52.426;9.450;2022-09-23T04:52:47;9.70;99.90
16285;DHT22;8250;52.426;9.450;2022-09-23T04:55:14;9.70;99.90
16285;DHT22;8250;52.426;9.450;2022-09-23T04:57:41;9.70;99.90
16285;DHT22;8250;52.426;9.450;2022-09-23T05:00:11;9.70;99.90
16285;DHT22;8250;52.426;9.450;2022-09-23T05:02:42;9.70;99.90
16285;DHT22;8250;52.426;9.450;2022-09-23T05:05:09;9.70;99.90
16285;DHT22;8250;52.426;9.450;2022-09-23T05:07:36;9.70;99.90
16285;DHT22;8250;52.426;9.450;2022-09-23T05:10:04;9.70;99.90
16285;DHT22;8250;52.426;9.450;2022-09-23T05:12:31;9.70;99.90
16285;DHT22;8250;52.426;9.450;2022-09-23T05:14:57;9.70;99.90
16285;DHT22;8250;52.426;9.450;2022-09-23T05:17:26;9.80;99.90
16285;DHT22;8250;52.426;9.450;2022-09-23T05:19:53;9.80;99.90
16285;DHT22;8250;52.426;9.450;2022-09-23T05:22:22;9.80;99.90
16285;DHT22;8250;52.426;9.450;2022-09-23T05:24:50;9.80;99.90
16285;DHT22;8250;52.426;9.450;2022-09-23T05:27:17;9.90;99.90
16285;DHT22;8250;52.426;9.450;2022-09-23T05:29:45;9.90;99.90
16285;DHT22;8250;52.426;9.450;2022-09-23T05:32:12;9.90;99.90
16285;DHT22;8250;52.426;9.450;2022-09-23T05:34:40;9.90;99.90
16285;DHT22;8250;52.426;9.450;2022-09-23T05:37:07;9.90;99.90
16285;DHT22;8250;52.426;9.450;2022-09-23T05:39:35;9.90;99.90
16285;DHT22;8250;52.426;9.450;2022-09-23T05:42:02;9.90;99.90
16285;DHT22;8250;52.426;9.450;2022-09-23T05:44:29;10.00;99.90
16285;DHT22;8250;52.426;9.450;2022-09-23T05:46:56;10.00;99.90
16285;DHT22;8250;52.426;9.450;2022-09-23T05:49:23;10.00;99.90
16285;DHT22;8250;52.426;9.450;2022-09-23T05:51:52;10.10;99.90
16285;DHT22;8250;52.426;9.450;2022-09-23T05:54:19;10.20;99.90
16285;DHT22;8250;52.426;9.450;2022-09-23T05:56:46;10.20;99.90
16285;DHT22;8250;52.426;9.450;2022-09-23T05:59:13;10.30;99.90
16285;DHT22;8250;52.426;9.450;2022-09-23T06:01:39;10.40;99.90
16285;DHT22;8250;52.426;9.450;2022-09-23T06:04:06;10.40;99.90
16285;DHT22;8250;52.426;9.450;2022-09-23T06:06:38;10.40;99.90
16285;DHT22;8250;52.426;9.450;2022-09-23T06:09:09;10.50;99.90
16285;DHT22;8250;52.426;9.450;2022-09-23T06:11:38;10.50;99.90
16285;DHT22;8250;52.426;9.450;2022-09-23T06:14:05;10.60;99.90
16285;DHT22;8250;52.426;9.450;2022-09-23T06:16:33;10.60;99.90
16285;DHT22;8250;52.426;9.450;2022-09-23T06:19:01;10.60;99.90
16285;DHT22;8250;52.426;9.450;2022-09-23T06:21:30;10.70;99.90
16285;DHT22;8250;52.426;9.450;2022-09-23T06:23:57;10.70;99.90
16285;DHT22;8250;52.426;9.450;2022-09-23T06:26:26;10.70;99.90
16285;DHT22;8250;52.426;9.450;2022-09-23T06:28:58;10.70;99.90
16285;DHT22;8250;52.426;9.450;2022-09-23T06:31:26;10.80;99.90
16285;DHT22;8250;52.426;9.450;2022-09-23T06:33:54;10.80;99.90
16285;DHT22;8250;52.426;9.450;2022-09-23T06:36:21;10.90;99.90
16285;DHT22;8250;52.426;9.450;2022-09-23T06:38:48;10.90;99.90
16285;DHT22;8250;52.426;9.450;2022-09-23T06:41:15;11.00;99.90
16285;DHT22;8250;52.426;9.450;2022-09-23T06:43:43;11.10;99.90
16285;DHT22;8250;52.426;9.450;2022-09-23T06:46:13;11.10;99.90
16285;DHT22;8250;52.426;9.450;2022-09-23T06:48:41;11.20;99.90
16285;DHT22;8250;52.426;9.450;2022-09-23T06:51:11;11.20;99.90
16285;DHT22;8250;52.426;9.450;2022-09-23T06:53:44;11.30;99.90
16285;DHT22;8250;52.426;9.450;2022-09-23T06:56:11;11.40;99.90
16285;DHT22;8250;52.426;9.450;2022-09-23T06:58:38;11.50;99.90
16285;DHT22;8250;52.426;9.450;2022-09-23T07:01:08;11.60;99.90
16285;DHT22;8250;52.426;9.450;2022-09-23T07:03:36;11.70;99.90
16285;DHT22;8250;52.426;9.450;2022-09-23T07:06:03;11.90;99.90
16285;DHT22;8250;52.426;9.450;2022-09-23T07:08:31;12.00;99.90
16285;DHT22;8250;52.426;9.450;2022-09-23T07:11:00;12.20;99.90
16285;DHT22;8250;52.426;9.450;2022-09-23T07:13:29;12.40;99.90
16285;DHT22;8250;52.426;9.450;2022-09-23T07:15:57;12.50;99.90
16285;DHT22;8250;52.426;9.450;2022-09-23T07:18:29;12.70;99.90
16285;DHT22;8250;52.426;9.450;2022-09-23T07:20:56;13.00;99.90
16285;DHT22;8250;52.426;9.450;2022-09-23T07:23:23;13.60;99.90
16285;DHT22;8250;52.426;9.450;2022-09-23T07:25:51;14.40;99.90
16285;DHT22;8250;52.426;9.450;2022-09-23T07:28:18;15.00;99.90
16285;DHT22;8250;52.426;9.450;2022-09-23T07:30:45;15.90;99.90
16285;DHT22;8250;52.426;9.450;2022-09-23T07:33:12;16.70;99.90
16285;DHT22;8250;52.426;9.450;2022-09-23T07:35:41;17.50;99.90
16285;DHT22;8250;52.426;9.450;2022-09-23T07:38:08;18.10;99.90
16285;DHT22;8250;52.426;9.450;2022-09-23T07:40:36;18.80;99.90
16285;DHT22;8250;52.426;9.450;2022-09-23T07:43:04;19.30;99.90
16285;DHT22;8250;52.426;9.450;2022-09-23T07:45:31;19.60;99.90
16285;DHT22;8250;52.426;9.450;2022-09-23T07:47:59;19.70;99.90
16285;DHT22;8250;52.426;9.450;2022-09-23T07:50:26;19.90;99.20
16285;DHT22;8250;52.426;9.450;2022-09-23T07:52:57;19.90;99.90
16285;DHT22;8250;52.426;9.450;2022-09-23T07:55:26;19.60;99.90
16285;DHT22;8250;52.426;9.450;2022-09-23T07:57:53;19.00;99.90
16285;DHT22;8250;52.426;9.450;2022-09-23T08:00:20;18.60;99.90
16285;DHT22;8250;52.426;9.450;2022-09-23T08:02:47;18.20;99.90
16285;DHT22;8250;52.426;9.450;2022-09-23T08:05:14;17.90;99.90
16285;DHT22;8250;52.426;9.450;2022-09-23T08:07:41;17.60;99.90
16285;DHT22;8250;52.426;9.450;2022-09-23T08:10:09;17.70;99.90
16285;DHT22;8250;52.426;9.450;2022-09-23T08:12:36;17.90;99.90
16285;DHT22;8250;52.426;9.450;2022-09-23T08:15:05;18.30;99.90
16285;DHT22;8250;52.426;9.450;2022-09-23T08:17:32;18.70;99.90
16285;DHT22;8250;52.426;9.450;2022-09-23T08:19:58;18.70;99.90
16285;DHT22;8250;52.426;9.450;2022-09-23T08:22:25;18.50;99.90
16285;DHT22;8250;52.426;9.450;2022-09-23T08:24:52;18.20;99.90
16285;DHT22;8250;52.426;9.450;2022-09-23T08:27:20;18.00;99.90
16285;DHT22;8250;52.426;9.450;2022-09-23T08:29:47;17.70;99.90
16285;DHT22;8250;52.426;9.450;2022-09-23T08:32:14;17.40;99.90
16285;DHT22;8250;52.426;9.450;2022-09-23T08:34:41;17.30;99.90
16285;DHT22;8250;52.426;9.450;2022-09-23T08:37:08;17.20;99.90
16285;DHT22;8250;52.426;9.450;2022-09-23T08:39:36;17.00;99.90
16285;DHT22;8250;52.426;9.450;2022-09-23T08:42:13;16.90;99.90
16285;DHT22;8250;52.426;9.450;2022-09-23T08:44:47;16.80;99.90
16285;DHT22;8250;52.426;9.450;2022-09-23T08:47:18;16.70;99.90
16285;DHT22;8250;52.426;9.450;2022-09-23T08:49:59;16.70;99.90
16285;DHT22;8250;52.426;9.450;2022-09-23T08:52:31;16.60;99.90
16285;DHT22;8250;52.426;9.450;2022-09-23T08:55:00;16.60;99.90
16285;DHT22;8250;52.426;9.450;2022-09-23T08:57:37;16.50;99.90
16285;DHT22;8250;52.426;9.450;2022-09-23T09:00:13;16.50;99.90
16285;DHT22;8250;52.426;9.450;2022-09-23T09:02:41;16.50;99.90
16285;DHT22;8250;52.426;9.450;2022-09-23T09:05:10;16.50;99.90
16285;DHT22;8250;52.426;9.450;2022-09-23T09:07:39;16.50;99.90
16285;DHT22;8250;52.426;9.450;2022-09-23T09:10:14;16.50;99.90
16285;DHT22;8250;52.426;9.450;2022-09-23T09:12:44;16.50;99.90
16285;DHT22;8250;52.426;9.450;2022-09-23T09:15:15;16.60;99.90
16285;DHT22;8250;52.426;9.450;2022-09-23T09:17:50;16.70;99.90
16285;DHT22;8250;52.426;9.450;2022-09-23T09:20:30;16.70;99.90
16285;DHT22;8250;52.426;9.450;2022-09-23T09:23:04;16.90;99.90
16285;DHT22;8250;52.426;9.450;2022-09-23T09:25:42;16.90;99.90
16285;DHT22;8250;52.426;9.450;2022-09-23T09:28:16;17.00;99.90
16285;DHT22;8250;52.426;9.450;2022-09-23T09:30:49;17.00;99.90
16285;DHT22;8250;52.426;9.450;2022-09-23T09:33:22;17.00;99.90
16285;DHT22;8250;52.426;9.450;2022-09-23T09:36:11;16.90;99.90
16285;DHT22;8250;52.426;9.450;2022-09-23T09:38:40;17.00;99.90
16285;DHT22;8250;52.426;9.450;2022-09-23T09:41:12;16.90;99.90
16285;DHT22;8250;52.426;9.450;2022-09-23T09:43:40;17.00;99.90
16285;DHT22;8250;52.426;9.450;2022-09-23T09:46:22;17.00;99.90
16285;DHT22;8250;52.426;9.450;2022-09-23T09:48:55;17.00;99.90
16285;DHT22;8250;52.426;9.450;2022-09-23T09:51:25;16.90;99.90
16285;DHT22;8250;52.426;9.450;2022-09-23T09:53:53;17.00;99.90
16285;DHT22;8250;52.426;9.450;2022-09-23T09:56:30;17.10;99.90
16285;DHT22;8250;52.426;9.450;2022-09-23T09:58:59;17.10;99.90
16285;DHT22;8250;52.426;9.450;2022-09-23T10:01:30;17.20;99.90
16285;DHT22;8250;52.426;9.450;2022-09-23T10:03:59;17.20;99.90
16285;DHT22;8250;52.426;9.450;2022-09-23T10:06:28;17.30;99.90
16285;DHT22;8250;52.426;9.450;2022-09-23T10:09:08;17.20;99.90
16285;DHT22;8250;52.426;9.450;2022-09-23T10:11:36;17.20;99.90
16285;DHT22;8250;52.426;9.450;2022-09-23T10:14:08;17.20;99.90
16285;DHT22;8250;52.426;9.450;2022-09-23T10:16:38;17.20;99.90
16285;DHT22;8250;52.426;9.450;2022-09-23T10:19:13;17.20;99.90
16285;DHT22;8250;52.426;9.450;2022-09-23T10:21:42;17.30;99.90
16285;DHT22;8250;52.426;9.450;2022-09-23T10:24:20;17.30;99.90
16285;DHT22;8250;52.426;9.450;2022-09-23T10:26:52;17.30;99.90
16285;DHT22;8250;52.426;9.450;2022-09-23T10:29:23;17.40;99.90
16285;DHT22;8250;52.426;9.450;2022-09-23T10:32:15;17.40;99.90
16285;DHT22;8250;52.426;9.450;2022-09-23T10:34:46;17.50;99.90
16285;DHT22;8250;52.426;9.450;2022-09-23T10:37:18;17.60;99.90
16285;DHT22;8250;52.426;9.450;2022-09-23T10:39:46;17.70;99.90
16285;DHT22;8250;52.426;9.450;2022-09-23T10:42:44;17.80;99.90
16285;DHT22;8250;52.426;9.450;2022-09-23T10:45:33;17.80;99.90
16285;DHT22;8250;52.426;9.450;2022-09-23T10:48:28;17.80;99.90
16285;DHT22;8250;52.426;9.450;2022-09-23T10:51:00;17.90;99.90
16285;DHT22;8250;52.426;9.450;2022-09-23T10:53:39;18.00;99.90
16285;DHT22;8250;52.426;9.450;2022-09-23T10:56:16;18.00;99.90
16285;DHT22;8250;52.426;9.450;2022-09-23T10:58:58;18.10;99.90
16285;DHT22;8250;52.426;9.450;2022-09-23T11:01:37;18.10;99.90
16285;DHT22;8250;52.426;9.450;2022-09-23T11:07:21;18.40;99.90
16285;DHT22;8250;52.426;9.450;2022-09-23T11:10:04;18.30;99.90
16285;DHT22;8250;52.426;9.450;2022-09-23T11:12:41;18.30;99.90
16285;DHT22;8250;52.426;9.450;2022-09-23T11:15:19;18.50;99.90
16285;DHT22;8250;52.426;9.450;2022-09-23T11:20:56;18.70;99.90
16285;DHT22;8250;52.426;9.450;2022-09-23T11:24:01;18.80;99.90
16285;DHT22;8250;52.426;9.450;2022-09-23T11:26:40;18.90;99.90
16285;DHT22;8250;52.426;9.450;2022-09-23T11:29:22;19.10;99.90
16285;DHT22;8250;52.426;9.450;2022-09-23T11:32:00;19.20;99.90
16285;DHT22;8250;52.426;9.450;2022-09-23T11:34:52;19.20;99.90
16285;DHT22;8250;52.426;9.450;2022-09-23T11:37:23;19.20;99.10
16285;DHT22;8250;52.426;9.450;2022-09-23T11:39:59;19.20;98.10
16285;DHT22;8250;52.426;9.450;2022-09-23T11:42:30;19.20;98.10
16285;DHT22;8250;52.426;9.450;2022-09-23T11:45:01;19.10;98.10
16285;DHT22;8250;52.426;9.450;2022-09-23T11:47:35;19.10;98.60
16285;DHT22;8250;52.426;9.450;2022-09-23T11:50:13;19.00;98.10
16285;DHT22;8250;52.426;9.450;2022-09-23T11:52:46;19.00;98.30
16285;DHT22;8250;52.426;9.450;2022-09-23T11:55:17;19.00;99.00
16285;DHT22;8250;52.426;9.450;2022-09-23T11:57:48;19.00;99.20
16285;DHT22;8250;52.426;9.450;2022-09-23T12:00:18;19.10;99.00
16285;DHT22;8250;52.426;9.450;2022-09-23T12:02:58;19.10;98.20
16285;DHT22;8250;52.426;9.450;2022-09-23T12:05:32;19.30;98.10
16285;DHT22;8250;52.426;9.450;2022-09-23T12:08:04;19.30;99.40
16285;DHT22;8250;52.426;9.450;2022-09-23T12:10:43;19.20;99.00
16285;DHT22;8250;52.426;9.450;2022-09-23T12:13:16;19.20;98.90
16285;DHT22;8250;52.426;9.450;2022-09-23T12:15:54;19.20;98.50
16285;DHT22;8250;52.426;9.450;2022-09-23T12:18:40;19.20;98.60
16285;DHT22;8250;52.426;9.450;2022-09-23T12:21:26;19.10;97.90
16285;DHT22;8250;52.426;9.450;2022-09-23T12:24:16;19.10;98.50
16285;DHT22;8250;52.426;9.450;2022-09-23T12:26:53;19.20;99.40
16285;DHT22;8250;52.426;9.450;2022-09-23T12:29:24;19.20;99.20
16285;DHT22;8250;52.426;9.450;2022-09-23T12:31:52;19.30;98.70
16285;DHT22;8250;52.426;9.450;2022-09-23T12:34:22;19.30;98.50
16285;DHT22;8250;52.426;9.450;2022-09-23T12:36:50;19.20;98.00
16285;DHT22;8250;52.426;9.450;2022-09-23T12:39:23;19.20;98.30
16285;DHT22;8250;52.426;9.450;2022-09-23T12:41:57;19.20;98.70
16285;DHT22;8250;52.426;9.450;2022-09-23T12:44:30;19.20;98.30
16285;DHT22;8250;52.426;9.450;2022-09-23T12:47:29;19.10;98.90
16285;DHT22;8250;52.426;9.450;2022-09-23T12:50:48;19.10;98.50
16285;DHT22;8250;52.426;9.450;2022-09-23T12:53:53;19.10;98.40
16285;DHT22;8250;52.426;9.450;2022-09-23T12:56:26;19.00;98.00
16285;DHT22;8250;52.426;9.450;2022-09-23T12:59:10;19.10;98.00
16285;DHT22;8250;52.426;9.450;2022-09-23T13:01:40;19.10;97.70
16285;DHT22;8250;52.426;9.450;2022-09-23T13:04:30;19.00;97.00
16285;DHT22;8250;52.426;9.450;2022-09-23T13:07:20;19.00;97.30
16285;DHT22;8250;52.426;9.450;2022-09-23T13:09:50;19.00;97.50
16285;DHT22;8250;52.426;9.450;2022-09-23T13:12:22;19.00;97.90
16285;DHT22;8250;52.426;9.450;2022-09-23T13:14:52;19.00;97.60
16285;DHT22;8250;52.426;9.450;2022-09-23T13:17:30;19.10;96.80
16285;DHT22;8250;52.426;9.450;2022-09-23T13:20:03;19.10;97.10
16285;DHT22;8250;52.426;9.450;2022-09-23T13:23:02;19.00;97.10
16285;DHT22;8250;52.426;9.450;2022-09-23T13:25:32;19.00;97.30
16285;DHT22;8250;52.426;9.450;2022-09-23T13:28:02;19.00;98.20
16285;DHT22;8250;52.426;9.450;2022-09-23T13:30:29;19.00;98.30
16285;DHT22;8250;52.426;9.450;2022-09-23T13:33:04;19.10;97.90
16285;DHT22;8250;52.426;9.450;2022-09-23T13:35:34;19.00;97.40
16285;DHT22;8250;52.426;9.450;2022-09-23T13:38:10;19.00;98.00
16285;DHT22;8250;52.426;9.450;2022-09-23T13:40:38;19.10;98.90
16285;DHT22;8250;52.426;9.450;2022-09-23T13:43:14;19.10;98.70
16285;DHT22;8250;52.426;9.450;2022-09-23T13:45:43;19.00;98.50
16285;DHT22;8250;52.426;9.450;2022-09-23T13:48:13;19.00;99.30
16285;DHT22;8250;52.426;9.450;2022-09-23T13:50:43;19.00;98.80
16285;DHT22;8250;52.426;9.450;2022-09-23T13:53:19;19.00;98.90
16285;DHT22;8250;52.426;9.450;2022-09-23T13:55:58;19.00;99.20
16285;DHT22;8250;52.426;9.450;2022-09-23T13:58:27;18.90;99.00
16285;DHT22;8250;52.426;9.450;2022-09-23T14:00:54;18.80;98.40
16285;DHT22;8250;52.426;9.450;2022-09-23T14:03:27;18.80;98.30
16285;DHT22;8250;52.426;9.450;2022-09-23T14:05:55;18.90;99.00
16285;DHT22;8250;52.426;9.450;2022-09-23T14:08:24;18.90;98.70
16285;DHT22;8250;52.426;9.450;2022-09-23T14:10:52;19.00;98.20
16285;DHT22;8250;52.426;9.450;2022-09-23T14:13:22;18.90;99.00
16285;DHT22;8250;52.426;9.450;2022-09-23T14:15:50;18.90;99.50
16285;DHT22;8250;52.426;9.450;2022-09-23T14:18:27;19.00;99.20
16285;DHT22;8250;52.426;9.450;2022-09-23T14:20:54;19.00;99.30
16285;DHT22;8250;52.426;9.450;2022-09-23T14:23:21;18.90;99.20
16285;DHT22;8250;52.426;9.450;2022-09-23T14:25:50;18.90;99.50
16285;DHT22;8250;52.426;9.450;2022-09-23T14:28:19;18.90;99.50
16285;DHT22;8250;52.426;9.450;2022-09-23T14:30:48;18.90;99.90
16285;DHT22;8250;52.426;9.450;2022-09-23T14:33:17;18.90;99.30
16285;DHT22;8250;52.426;9.450;2022-09-23T14:35:50;18.90;99.90
16285;DHT22;8250;52.426;9.450;2022-09-23T14:38:24;18.80;98.10
16285;DHT22;8250;52.426;9.450;2022-09-23T14:41:19;18.80;98.10
16285;DHT22;8250;52.426;9.450;2022-09-23T14:43:51;18.80;98.30
16285;DHT22;8250;52.426;9.450;2022-09-23T14:46:20;18.80;98.10
16285;DHT22;8250;52.426;9.450;2022-09-23T14:48:57;18.80;98.50
16285;DHT22;8250;52.426;9.450;2022-09-23T14:51:30;18.80;98.30
16285;DHT22;8250;52.426;9.450;2022-09-23T14:57:24;18.80;99.50
16285;DHT22;8250;52.426;9.450;2022-09-23T14:59:53;18.70;98.60
16285;DHT22;8250;52.426;9.450;2022-09-23T15:02:29;18.70;98.30
16285;DHT22;8250;52.426;9.450;2022-09-23T15:05:15;18.60;98.30
16285;DHT22;8250;52.426;9.450;2022-09-23T15:07:45;18.60;98.50
16285;DHT22;8250;52.426;9.450;2022-09-23T15:10:19;18.60;98.20
16285;DHT22;8250;52.426;9.450;2022-09-23T15:12:50;18.60;99.00
16285;DHT22;8250;52.426;9.450;2022-09-23T15:15:18;18.60;99.10
16285;DHT22;8250;52.426;9.450;2022-09-23T15:17:45;18.60;99.00
16285;DHT22;8250;52.426;9.450;2022-09-23T15:20:19;18.60;99.30
16285;DHT22;8250;52.426;9.450;2022-09-23T15:22:49;18.60;99.60
16285;DHT22;8250;52.426;9.450;2022-09-23T15:25:18;18.60;99.90
16285;DHT22;8250;52.426;9.450;2022-09-23T15:27:58;18.50;99.90
16285;DHT22;8250;52.426;9.450;2022-09-23T15:30:27;18.50;99.90
16285;DHT22;8250;52.426;9.450;2022-09-23T15:32:54;18.50;99.90
16285;DHT22;8250;52.426;9.450;2022-09-23T15:35:23;18.60;99.50
16285;DHT22;8250;52.426;9.450;2022-09-23T15:37:53;18.60;99.80
16285;DHT22;8250;52.426;9.450;2022-09-23T15:40:23;18.60;99.80
16285;DHT22;8250;52.426;9.450;2022-09-23T15:42:53;18.50;99.90
16285;DHT22;8250;52.426;9.450;2022-09-23T15:45:29;18.50;99.90
16285;DHT22;8250;52.426;9.450;2022-09-23T15:47:59;18.50;99.90
16285;DHT22;8250;52.426;9.450;2022-09-23T15:50:28;18.50;99.90
16285;DHT22;8250;52.426;9.450;2022-09-23T15:52:56;18.40;99.90
16285;DHT22;8250;52.426;9.450;2022-09-23T15:55:23;18.40;99.90
16285;DHT22;8250;52.426;9.450;2022-09-23T15:57:50;18.40;99.90
16285;DHT22;8250;52.426;9.450;2022-09-23T16:00:20;18.40;99.90
16285;DHT22;8250;52.426;9.450;2022-09-23T16:02:52;18.30;99.90
16285;DHT22;8250;52.426;9.450;2022-09-23T16:05:26;18.30;99.90
16285;DHT22;8250;52.426;9.450;2022-09-23T16:07:55;18.30;99.90
16285;DHT22;8250;52.426;9.450;2022-09-23T16:10:22;18.30;99.90
16285;DHT22;8250;52.426;9.450;2022-09-23T16:12:51;18.20;99.90
16285;DHT22;8250;52.426;9.450;2022-09-23T16:15:21;18.20;99.90
16285;DHT22;8250;52.426;9.450;2022-09-23T16:17:50;18.20;99.90
16285;DHT22;8250;52.426;9.450;2022-09-23T16:20:17;18.20;99.90
16285;DHT22;8250;52.426;9.450;2022-09-23T16:22:47;18.20;99.90
16285;DHT22;8250;52.426;9.450;2022-09-23T16:25:15;18.10;99.90
16285;DHT22;8250;52.426;9.450;2022-09-23T16:27:42;18.10;99.90
16285;DHT22;8250;52.426;9.450;2022-09-23T16:30:10;18.10;99.90